createdAt,value
2022-11-08T00:00:02.658Z,5.93
2022-11-08T00:02:34.817Z,7.82
2022-11-08T00:05:23.905Z,9.18
2022-11-08T00:08:10.475Z,11.45
2022-11-08T00:10:57.306Z,10.35
2022-11-08T00:13:44.382Z,7.88
2022-11-08T00:16:13.798Z,9.48
2022-11-08T00:18:43.482Z,7.95
2022-11-08T00:21:14.294Z,9.05
2022-11-08T00:23:45.560Z,7.68
2022-11-08T00:26:14.937Z,8.85
2022-11-08T00:28:44.175Z,8.52
2022-11-08T00:31:13.516Z,9.65
2022-11-08T00:33:42.791Z,8.45
2022-11-08T00:36:13.139Z,7.40
2022-11-08T00:38:44.482Z,10.52
2022-11-08T00:41:14.590Z,8.23
2022-11-08T00:43:44.173Z,14.30
2022-11-08T00:46:13.607Z,8.40
2022-11-08T00:48:42.716Z,12.60
2022-11-08T00:51:13.610Z,8.35
2022-11-08T00:53:44.682Z,9.90
2022-11-08T00:56:15.185Z,11.85
2022-11-08T00:58:44.871Z,7.80
2022-11-08T01:01:15.292Z,10.38
2022-11-08T01:03:47.666Z,10.55
2022-11-08T01:06:18.134Z,6.60
2022-11-08T01:08:49.877Z,8.82
2022-11-08T01:11:20.146Z,11.73
2022-11-08T01:16:36.885Z,11.48
2022-11-08T01:19:06.304Z,9.60
2022-11-08T01:21:35.802Z,10.93
2022-11-08T01:24:06.553Z,10.02
2022-11-08T01:26:35.817Z,10.35
2022-11-08T01:29:05.501Z,11.90
2022-11-08T01:31:34.913Z,10.60
2022-11-08T01:34:04.514Z,8.68
2022-11-08T01:36:33.944Z,7.03
2022-11-08T01:39:03.160Z,6.38
2022-11-08T01:41:33.647Z,5.07
2022-11-08T01:44:02.807Z,7.53
2022-11-08T01:46:33.394Z,6.30
2022-11-08T01:49:11.331Z,9.77
2022-11-08T01:51:44.808Z,9.20
2022-11-08T01:54:18.626Z,10.60
2022-11-08T01:56:51.420Z,4.28
2022-11-08T01:59:21.227Z,5.88
2022-11-08T02:01:52.296Z,7.57
2022-11-08T02:04:21.784Z,4.28
2022-11-08T02:06:51.138Z,4.75
2022-11-08T02:09:21.118Z,7.18
2022-11-08T02:11:52.658Z,11.82
2022-11-08T02:14:22.707Z,9.60
2022-11-08T02:16:52.167Z,8.40
2022-11-08T02:19:27.275Z,10.63
2022-11-08T02:21:58.145Z,6.85
2022-11-08T02:24:28.857Z,10.48
2022-11-08T02:26:58.421Z,8.82
2022-11-08T02:29:28.842Z,5.13
2022-11-08T02:31:58.557Z,8.30
2022-11-08T02:34:31.560Z,3.38
2022-11-08T02:37:01.433Z,6.65
2022-11-08T02:39:33.029Z,6.63
2022-11-08T02:42:02.877Z,7.35
2022-11-08T02:44:32.213Z,7.30
2022-11-08T02:47:01.428Z,5.75
2022-11-08T02:49:30.462Z,8.55
2022-11-08T02:51:59.588Z,6.82
2022-11-08T02:54:28.874Z,4.40
2022-11-08T02:57:01.954Z,7.85
2022-11-08T02:59:33.763Z,5.75
2022-11-08T03:02:03.098Z,6.43
2022-11-08T03:04:32.586Z,6.03
2022-11-08T03:07:02.162Z,6.93
2022-11-08T03:09:31.635Z,4.55
2022-11-08T03:12:02.200Z,3.63
2022-11-08T03:14:31.921Z,6.25
2022-11-08T03:17:01.010Z,7.78
2022-11-08T03:19:30.168Z,6.22
2022-11-08T03:21:59.263Z,3.17
2022-11-08T03:24:28.275Z,6.82
2022-11-08T03:26:57.552Z,6.55
2022-11-08T03:29:28.282Z,4.07
2022-11-08T03:31:59.900Z,6.18
2022-11-08T03:34:29.124Z,5.18
2022-11-08T03:36:58.261Z,8.93
2022-11-08T03:39:27.632Z,6.32
2022-11-08T03:41:56.756Z,6.50
2022-11-08T03:44:25.882Z,4.43
2022-11-08T03:46:56.480Z,3.63
2022-11-08T03:49:26.817Z,5.50
2022-11-08T03:51:56.315Z,6.55
2022-11-08T03:54:27.591Z,5.78
2022-11-08T03:56:57.088Z,6.50
2022-11-08T03:59:27.008Z,5.40
2022-11-08T04:02:05.111Z,5.45
2022-11-08T04:04:34.275Z,2.15
2022-11-08T04:07:03.421Z,8.10
2022-11-08T04:09:32.536Z,5.20
2022-11-08T04:12:19.000Z,4.30
2022-11-08T04:15:05.644Z,2.85
2022-11-08T04:17:50.104Z,3.75
2022-11-08T04:20:36.742Z,5.63
2022-11-08T04:23:06.191Z,6.10
2022-11-08T04:25:35.811Z,6.22
2022-11-08T04:28:05.552Z,5.32
2022-11-08T04:30:34.952Z,5.60
2022-11-08T04:35:50.411Z,6.13
2022-11-08T04:38:20.240Z,3.35
2022-11-08T04:40:49.641Z,6.22
2022-11-08T04:43:18.726Z,3.55
2022-11-08T04:45:48.031Z,6.70
2022-11-08T04:48:18.917Z,6.35
2022-11-08T04:50:48.528Z,4.90
2022-11-08T04:53:18.059Z,4.60
2022-11-08T04:55:47.137Z,4.80
2022-11-08T04:58:16.791Z,5.45
2022-11-08T05:00:46.138Z,4.68
2022-11-08T05:03:15.447Z,4.85
2022-11-08T05:05:45.978Z,7.32
2022-11-08T05:08:15.473Z,6.82
2022-11-08T05:10:44.770Z,4.15
2022-11-08T05:13:14.234Z,7.63
2022-11-08T05:15:43.466Z,6.03
2022-11-08T05:18:12.859Z,4.68
2022-11-08T05:20:59.709Z,4.32
2022-11-08T05:23:30.310Z,5.15
2022-11-08T05:26:00.037Z,4.53
2022-11-08T05:28:29.174Z,8.15
2022-11-08T05:30:58.621Z,8.20
2022-11-08T05:33:30.430Z,4.03
2022-11-08T05:36:05.847Z,6.38
2022-11-08T05:38:36.846Z,5.60
2022-11-08T05:41:06.158Z,5.68
2022-11-08T05:43:36.021Z,5.05
2022-11-08T05:46:05.474Z,3.42
2022-11-08T05:48:36.427Z,5.72
2022-11-08T05:51:05.945Z,8.15
2022-11-08T05:53:40.165Z,15.77
2022-11-08T05:56:12.384Z,3.17
2022-11-08T06:01:12.619Z,4.03
2022-11-08T06:03:42.444Z,3.97
2022-11-08T06:06:12.764Z,8.90
2022-11-08T06:08:48.971Z,5.30
2022-11-08T06:11:21.827Z,9.75
2022-11-08T06:13:51.459Z,3.10
2022-11-08T06:16:22.546Z,7.68
2022-11-08T06:18:52.023Z,2.97
2022-11-08T06:21:21.950Z,2.95
2022-11-08T06:23:55.804Z,4.57
2022-11-08T06:26:25.694Z,5.93
2022-11-08T06:28:55.200Z,4.63
2022-11-08T06:31:24.279Z,10.35
2022-11-08T06:33:53.394Z,7.30
2022-11-08T06:36:22.748Z,2.33
2022-11-08T06:38:57.136Z,4.32
2022-11-08T06:41:28.185Z,3.13
2022-11-08T06:43:57.588Z,7.07
2022-11-08T06:46:26.812Z,5.82
2022-11-08T06:48:56.150Z,5.30
2022-11-08T06:51:25.645Z,8.45
2022-11-08T06:53:56.381Z,5.60
2022-11-08T06:56:25.481Z,16.08
2022-11-08T06:58:55.179Z,8.20
2022-11-08T07:01:24.677Z,7.25
2022-11-08T07:03:56.898Z,7.30
2022-11-08T07:06:26.192Z,10.15
2022-11-08T07:08:56.903Z,9.13
2022-11-08T07:11:26.302Z,13.52
2022-11-08T07:13:56.296Z,6.95
2022-11-08T07:16:25.814Z,5.47
2022-11-08T07:18:55.980Z,6.60
2022-11-08T07:21:25.679Z,8.18
2022-11-08T07:23:55.079Z,10.50
2022-11-08T07:26:28.961Z,13.35
2022-11-08T07:29:02.461Z,7.72
2022-11-08T07:31:31.783Z,14.10
2022-11-08T07:34:02.675Z,8.98
2022-11-08T07:36:33.316Z,8.23
2022-11-08T07:39:06.628Z,8.27
2022-11-08T07:41:42.034Z,8.15
2022-11-08T07:44:11.715Z,9.40
2022-11-08T07:46:57.806Z,11.70
2022-11-08T07:49:31.614Z,7.85
2022-11-08T07:52:07.278Z,13.05
2022-11-08T07:54:36.664Z,8.52
2022-11-08T07:57:07.405Z,13.77
2022-11-08T07:59:41.479Z,16.67
2022-11-08T08:02:11.645Z,8.00
2022-11-08T08:04:44.808Z,7.85
2022-11-08T08:07:17.012Z,10.65
2022-11-08T08:09:50.245Z,9.40
2022-11-08T08:12:24.222Z,14.45
2022-11-08T08:14:55.902Z,8.48
2022-11-08T08:17:25.664Z,9.80
2022-11-08T08:19:56.442Z,12.55
2022-11-08T08:22:25.779Z,13.63
2022-11-08T08:25:00.472Z,14.57
2022-11-08T08:27:35.448Z,12.07
2022-11-08T08:30:06.685Z,10.05
2022-11-08T08:32:36.532Z,11.10
2022-11-08T08:35:09.077Z,13.77
2022-11-08T08:37:38.481Z,13.95
2022-11-08T08:40:08.431Z,19.27
2022-11-08T08:42:39.213Z,14.68
2022-11-08T08:45:15.058Z,13.02
2022-11-08T08:47:45.043Z,10.35
2022-11-08T08:50:18.084Z,13.00
2022-11-08T08:52:48.365Z,14.02
2022-11-08T08:55:22.794Z,12.32
2022-11-08T08:57:54.817Z,9.07
2022-11-08T09:03:16.180Z,13.13
2022-11-08T09:05:47.042Z,12.02
2022-11-08T09:08:17.494Z,13.75
2022-11-08T09:10:47.166Z,7.63
2022-11-08T09:13:18.067Z,11.57
2022-11-08T09:15:47.459Z,11.43
2022-11-08T09:18:17.778Z,14.27
2022-11-08T09:20:51.403Z,10.48
2022-11-08T09:23:24.835Z,7.00
2022-11-08T09:25:58.472Z,15.18
2022-11-08T09:28:31.816Z,7.53
2022-11-08T09:31:03.200Z,11.98
2022-11-08T09:33:34.209Z,12.93
2022-11-08T09:36:03.994Z,8.27
2022-11-08T09:38:35.160Z,11.25
2022-11-08T09:41:24.733Z,8.45
2022-11-08T09:44:07.712Z,11.35
2022-11-08T09:46:41.663Z,13.48
2022-11-08T09:49:15.542Z,15.93
2022-11-08T09:51:44.728Z,9.75
2022-11-08T09:54:19.582Z,7.22
2022-11-08T09:56:49.717Z,7.95
2022-11-08T09:59:27.219Z,10.85
2022-11-08T10:01:56.628Z,11.35
2022-11-08T10:04:26.670Z,5.28
2022-11-08T10:07:10.013Z,10.85
2022-11-08T10:09:47.388Z,11.02
2022-11-08T10:12:19.913Z,8.80
2022-11-08T10:14:55.905Z,7.57
2022-11-08T10:17:32.649Z,7.35
2022-11-08T10:20:07.796Z,5.93
2022-11-08T10:22:47.987Z,10.48
2022-11-08T10:25:21.937Z,7.55
2022-11-08T10:27:52.943Z,8.05
2022-11-08T10:30:24.588Z,10.15
2022-11-08T10:32:57.108Z,6.80
2022-11-08T10:35:29.035Z,8.35
2022-11-08T10:38:00.302Z,3.80
2022-11-08T10:40:37.153Z,8.63
2022-11-08T10:43:10.671Z,11.40
2022-11-08T10:45:41.232Z,8.35
2022-11-08T10:48:11.241Z,10.32
2022-11-08T10:50:46.881Z,9.57
2022-11-08T10:53:20.244Z,8.15
2022-11-08T10:55:51.584Z,10.10
2022-11-08T10:58:31.311Z,14.00
2022-11-08T11:01:06.748Z,10.35
2022-11-08T11:03:36.612Z,11.25
2022-11-08T11:06:06.775Z,15.55
2022-11-08T11:08:49.668Z,9.90
2022-11-08T11:11:27.006Z,10.45
2022-11-08T11:14:11.828Z,17.23
2022-11-08T11:16:54.003Z,9.23
2022-11-08T11:19:23.772Z,9.95
2022-11-08T11:21:55.641Z,14.02
2022-11-08T11:24:25.662Z,7.68
2022-11-08T11:27:03.315Z,9.13
2022-11-08T11:29:33.508Z,11.52
2022-11-08T11:35:00.465Z,6.47
2022-11-08T11:37:42.107Z,5.95
2022-11-08T11:40:16.591Z,10.68
2022-11-08T11:42:49.962Z,11.63
2022-11-08T11:45:20.906Z,12.10
2022-11-08T11:47:53.705Z,14.10
2022-11-08T11:50:31.690Z,9.15
2022-11-08T11:53:07.438Z,13.25
2022-11-08T11:55:45.487Z,9.73
2022-11-08T11:58:24.066Z,9.40
2022-11-08T12:00:59.235Z,9.88
2022-11-08T12:03:40.037Z,8.10
2022-11-08T12:06:20.822Z,5.82
2022-11-08T12:08:59.338Z,10.60
2022-11-08T12:11:36.952Z,9.60
2022-11-08T12:14:16.568Z,12.52
2022-11-08T12:16:50.192Z,9.80
2022-11-08T12:19:29.380Z,9.05
2022-11-08T12:22:04.649Z,10.90
2022-11-08T12:24:43.801Z,14.32
2022-11-08T12:27:18.380Z,12.77
2022-11-08T12:29:52.772Z,7.72
2022-11-08T12:32:27.549Z,9.50
2022-11-08T12:35:04.654Z,7.65
2022-11-08T12:37:41.299Z,13.82
2022-11-08T12:40:20.322Z,13.15
2022-11-08T12:42:59.813Z,11.68
2022-11-08T12:45:37.513Z,11.13
2022-11-08T12:48:11.666Z,11.18
2022-11-08T12:50:45.346Z,12.80
2022-11-08T12:53:28.869Z,9.55
2022-11-08T12:55:59.612Z,12.90
2022-11-08T12:58:34.683Z,11.93
2022-11-08T13:01:06.595Z,10.25
2022-11-08T13:03:49.492Z,10.30
2022-11-08T13:06:20.704Z,14.15
2022-11-08T13:08:56.724Z,13.82
2022-11-08T13:11:29.121Z,12.38
2022-11-08T13:14:02.472Z,8.82
2022-11-08T13:16:39.310Z,17.17
2022-11-08T13:19:10.721Z,8.32
2022-11-08T13:21:42.238Z,7.10
2022-11-08T13:24:43.867Z,20.55
2022-11-08T13:29:45.533Z,14.15
2022-11-08T13:32:20.449Z,10.07
2022-11-08T13:34:52.653Z,14.90
2022-11-08T13:37:31.310Z,10.48
2022-11-08T13:40:11.699Z,15.88
2022-11-08T13:42:42.837Z,18.90
2022-11-08T13:45:27.838Z,12.20
2022-11-08T13:47:58.473Z,14.50
2022-11-08T13:50:46.272Z,9.40
2022-11-08T13:53:30.318Z,10.60
2022-11-08T13:56:19.597Z,10.40
2022-11-08T13:58:49.254Z,11.32
2022-11-08T14:01:38.468Z,17.52
2022-11-08T14:04:22.835Z,8.98
2022-11-08T14:06:59.230Z,6.35
2022-11-08T14:09:33.722Z,4.28
2022-11-08T14:12:04.718Z,5.78
2022-11-08T14:14:42.878Z,2.72
2022-11-08T14:17:15.332Z,4.28
2022-11-08T14:19:46.141Z,5.55
2022-11-08T14:22:22.462Z,4.30
2022-11-08T14:24:55.232Z,5.50
2022-11-08T14:27:35.140Z,4.15
2022-11-08T14:30:04.789Z,1.98
2022-11-08T14:32:34.309Z,3.15
2022-11-08T14:35:14.155Z,6.03
2022-11-08T14:37:45.723Z,4.55
2022-11-08T14:40:19.754Z,6.78
2022-11-08T14:42:49.502Z,6.50
2022-11-08T14:45:24.634Z,9.20
2022-11-08T14:47:55.874Z,10.60
2022-11-08T14:50:25.954Z,8.20
2022-11-08T14:52:56.766Z,5.20
2022-11-08T14:55:31.313Z,9.63
2022-11-08T14:58:14.712Z,6.20
2022-11-08T15:00:49.437Z,5.07
2022-11-08T15:03:20.801Z,8.48
2022-11-08T15:05:58.895Z,8.70
2022-11-08T15:08:31.773Z,7.45
2022-11-08T15:11:04.282Z,9.30
2022-11-08T15:13:36.106Z,3.22
2022-11-08T15:16:07.171Z,4.18
2022-11-08T15:18:38.392Z,2.10
2022-11-08T15:21:08.874Z,5.50
2022-11-08T15:23:43.790Z,5.03
2022-11-08T15:26:20.334Z,6.28
2022-11-08T15:28:56.807Z,4.43
2022-11-08T15:31:29.801Z,4.78
2022-11-08T15:33:59.220Z,9.27
2022-11-08T15:36:32.194Z,6.88
2022-11-08T15:39:04.082Z,9.68
2022-11-08T15:41:34.707Z,6.88
2022-11-08T15:44:31.423Z,4.63
2022-11-08T15:47:01.010Z,4.43
2022-11-08T15:49:30.747Z,4.95
2022-11-08T15:51:59.862Z,6.45
2022-11-08T15:54:30.909Z,5.05
2022-11-08T15:56:59.930Z,4.07
2022-11-08T15:59:33.687Z,6.38
2022-11-08T16:02:04.372Z,6.82
2022-11-08T16:04:33.870Z,6.95
2022-11-08T16:07:06.155Z,5.10
2022-11-08T16:09:38.515Z,6.82
2022-11-08T16:12:08.372Z,11.73
2022-11-08T16:14:37.876Z,15.13
2022-11-08T16:17:08.075Z,10.00
2022-11-08T16:19:37.385Z,10.13
2022-11-08T16:22:07.572Z,9.98
2022-11-08T16:24:38.374Z,10.43
2022-11-08T16:27:07.973Z,9.32
2022-11-08T16:29:37.490Z,11.07
2022-11-08T16:32:06.866Z,9.55
2022-11-08T16:34:36.179Z,11.95
2022-11-08T16:37:05.264Z,9.75
2022-11-08T16:39:34.354Z,12.20
2022-11-08T16:42:05.712Z,10.93
2022-11-08T16:44:37.640Z,15.85
2022-11-08T16:47:07.098Z,17.30
2022-11-08T16:49:36.326Z,9.85
2022-11-08T16:52:05.420Z,7.18
2022-11-08T16:54:34.585Z,14.00
2022-11-08T16:57:28.942Z,18.15
2022-11-08T16:59:54.269Z,15.07
2022-11-08T17:02:29.470Z,13.55
2022-11-08T17:04:58.492Z,14.10
2022-11-08T17:07:27.842Z,14.88
2022-11-08T17:09:59.054Z,19.42
2022-11-08T17:12:29.806Z,14.33
2022-11-08T17:14:59.131Z,13.40
2022-11-08T17:17:29.654Z,13.00
2022-11-08T17:19:58.934Z,17.88
2022-11-08T17:22:28.049Z,13.73
2022-11-08T17:24:57.359Z,23.52
2022-11-08T17:27:29.083Z,17.33
2022-11-08T17:29:58.734Z,18.50
2022-11-08T17:32:27.969Z,14.45
2022-11-08T17:34:57.036Z,17.65
2022-11-08T17:37:26.820Z,15.10
2022-11-08T17:39:56.796Z,19.15
2022-11-08T17:42:28.718Z,23.60
2022-11-08T17:45:02.603Z,12.80
2022-11-08T17:47:31.973Z,15.73
2022-11-08T17:50:01.249Z,16.50
2022-11-08T17:52:30.640Z,13.65
2022-11-08T17:55:00.104Z,22.08
2022-11-08T17:57:29.512Z,20.65
2022-11-08T18:00:00.817Z,14.57
2022-11-08T18:02:30.481Z,17.95
2022-11-08T18:04:59.919Z,18.48
2022-11-08T18:07:29.483Z,15.35
2022-11-08T18:09:59.960Z,18.30
2022-11-08T18:12:29.276Z,15.50
2022-11-08T18:14:59.707Z,22.33
2022-11-08T18:17:28.708Z,12.77
2022-11-08T18:19:57.930Z,18.45
2022-11-08T18:22:28.101Z,19.67
2022-11-08T18:24:57.314Z,17.15
2022-11-08T18:27:27.068Z,18.27
2022-11-08T18:29:56.376Z,15.85
2022-11-08T18:32:27.198Z,11.23
2022-11-08T18:34:56.589Z,23.55
2022-11-08T18:37:25.802Z,19.38
2022-11-08T18:39:55.012Z,19.30
2022-11-08T18:42:24.061Z,17.20
2022-11-08T18:44:59.461Z,18.92
2022-11-08T18:47:30.098Z,17.88
2022-11-08T18:50:01.938Z,17.77
2022-11-08T18:52:31.459Z,15.05
2022-11-08T18:55:00.485Z,13.68
2022-11-08T18:57:29.468Z,15.00
2022-11-08T19:00:01.030Z,10.32
2022-11-08T19:05:01.149Z,12.55
2022-11-08T19:07:30.307Z,15.77
2022-11-08T19:09:59.461Z,9.43
2022-11-08T19:12:29.849Z,16.27
2022-11-08T19:14:59.571Z,8.60
2022-11-08T19:17:30.400Z,13.40
2022-11-08T19:20:01.238Z,9.38
2022-11-08T19:22:30.617Z,10.90
2022-11-08T19:24:59.815Z,14.13
2022-11-08T19:27:29.219Z,14.07
2022-11-08T19:30:00.339Z,8.65
2022-11-08T19:32:29.393Z,19.60
2022-11-08T19:34:58.852Z,9.88
2022-11-08T19:37:29.271Z,12.13
2022-11-08T19:39:58.523Z,13.13
2022-11-08T19:42:27.945Z,19.48
2022-11-08T19:44:57.288Z,15.20
2022-11-08T19:47:27.342Z,13.52
2022-11-08T19:49:56.498Z,14.18
2022-11-08T19:52:26.247Z,8.02
2022-11-08T19:54:57.077Z,13.45
2022-11-08T19:57:29.398Z,12.70
2022-11-08T19:59:58.510Z,18.65
2022-11-08T20:02:27.668Z,14.30
2022-11-08T20:04:56.893Z,13.48
2022-11-08T20:07:25.796Z,12.50
2022-11-08T20:09:57.055Z,19.08
2022-11-08T20:12:26.124Z,18.00
2022-11-08T20:14:58.143Z,10.07
2022-11-08T20:17:27.348Z,7.22
2022-11-08T20:19:57.183Z,13.88
2022-11-08T20:22:26.745Z,13.77
2022-11-08T20:25:01.556Z,13.15
2022-11-08T20:27:32.712Z,12.52
2022-11-08T20:30:02.254Z,13.70
2022-11-08T20:32:33.770Z,18.77
2022-11-08T20:35:04.572Z,12.45
2022-11-08T20:37:35.471Z,21.10
2022-11-08T20:40:08.914Z,14.60
2022-11-08T20:42:41.683Z,16.83
2022-11-08T20:45:14.901Z,28.77
2022-11-08T20:47:48.079Z,16.10
2022-11-08T20:50:18.230Z,13.38
2022-11-08T20:52:50.062Z,18.15
2022-11-08T20:55:21.417Z,12.23
2022-11-08T20:57:51.090Z,15.88
2022-11-08T21:00:32.893Z,20.90
2022-11-08T21:03:12.704Z,12.88
2022-11-08T21:05:51.246Z,13.90
2022-11-08T21:11:12.400Z,15.00
2022-11-08T21:13:42.873Z,13.98
2022-11-08T21:16:29.394Z,14.98
2022-11-08T21:19:00.193Z,16.67
2022-11-08T21:21:29.176Z,17.60
2022-11-08T21:23:58.902Z,12.93
2022-11-08T21:26:29.375Z,13.38
2022-11-08T21:28:58.570Z,13.18
2022-11-08T21:31:27.717Z,14.60
2022-11-08T21:33:57.038Z,13.48
2022-11-08T21:36:27.278Z,13.65
2022-11-08T21:38:56.708Z,18.83
2022-11-08T21:41:27.446Z,13.93
2022-11-08T21:43:58.459Z,17.17
2022-11-08T21:46:28.767Z,14.25
2022-11-08T21:49:00.158Z,11.90
2022-11-08T21:51:30.349Z,12.75
2022-11-08T21:54:01.007Z,18.20
2022-11-08T21:56:31.408Z,17.17
2022-11-08T21:59:03.074Z,10.98
2022-11-08T22:01:32.319Z,14.55
2022-11-08T22:04:01.779Z,15.15
2022-11-08T22:06:31.163Z,17.08
2022-11-08T22:09:00.738Z,16.38
2022-11-08T22:11:30.161Z,11.25
2022-11-08T22:13:59.152Z,12.23
2022-11-08T22:16:30.431Z,17.10
2022-11-08T22:19:05.263Z,14.27
2022-11-08T22:21:43.390Z,11.85
2022-11-08T22:24:13.767Z,14.57
2022-11-08T22:26:43.233Z,8.68
2022-11-08T22:29:12.946Z,17.35
2022-11-08T22:31:44.908Z,19.83
2022-11-08T22:34:14.673Z,19.73
2022-11-08T22:36:46.028Z,18.48
2022-11-08T22:39:15.761Z,21.80
2022-11-08T22:41:45.229Z,16.25
2022-11-08T22:44:14.868Z,13.65
2022-11-08T22:46:45.989Z,10.30
2022-11-08T22:49:15.471Z,13.02
2022-11-08T22:51:44.524Z,12.88
2022-11-08T22:54:15.273Z,11.80
2022-11-08T22:56:44.860Z,11.38
2022-11-08T22:59:14.050Z,11.75
2022-11-08T23:01:44.851Z,33.15
2022-11-08T23:04:14.231Z,13.50
2022-11-08T23:06:46.399Z,14.52
2022-11-08T23:09:15.885Z,18.20
2022-11-08T23:12:02.539Z,25.02
2022-11-08T23:14:51.220Z,15.00
2022-11-08T23:17:21.940Z,22.83
2022-11-08T23:20:23.526Z,20.48
2022-11-08T23:23:10.375Z,18.80
2022-11-08T23:25:39.829Z,10.65
2022-11-08T23:28:26.457Z,15.07
2022-11-08T23:31:30.164Z,14.98
2022-11-08T23:34:01.043Z,11.90
2022-11-08T23:36:31.356Z,19.08
2022-11-08T23:39:00.499Z,12.50
2022-11-08T23:41:47.208Z,12.95
2022-11-08T23:44:25.161Z,8.93
2022-11-08T23:46:54.208Z,19.25
2022-11-08T23:49:24.830Z,17.30
2022-11-08T23:51:54.129Z,13.68
2022-11-08T23:54:23.998Z,17.85
2022-11-08T23:56:53.457Z,14.38
2022-11-08T23:59:22.967Z,15.15
